sensor_id;sensor_type;location;lat;lon;timestamp;pressure;altitude;pressure_sealevel;temperature;humidity
54900;BME280;40801;41.924;25.562;2023-09-19T00:02:22;99906.88;;;16.48;63.85
54900;BME280;40801;41.924;25.562;2023-09-19T00:04:48;99909.78;;;16.51;63.82
54900;BME280;40801;41.924;25.562;2023-09-19T00:07:13;99911.03;;;16.54;64.05
54900;BME280;40801;41.924;25.562;2023-09-19T00:09:39;99907.97;;;16.55;63.99
54900;BME280;40801;41.924;25.562;2023-09-19T00:12:06;99911.63;;;16.59;63.59
54900;BME280;40801;41.924;25.562;2023-09-19T00:14:32;99913.09;;;16.57;63.83
54900;BME280;40801;41.924;25.562;2023-09-19T00:17:04;99915.88;;;16.48;64.16
54900;BME280;40801;41.924;25.562;2023-09-19T00:19:35;99916.97;;;16.47;64.00
54900;BME280;40801;41.924;25.562;2023-09-19T00:22:01;99915.06;;;16.48;64.26
54900;BME280;40801;41.924;25.562;2023-09-19T00:24:26;99904.16;;;16.48;64.03
54900;BME280;40801;41.924;25.562;2023-09-19T00:26:53;99896.53;;;16.41;64.11
54900;BME280;40801;41.924;25.562;2023-09-19T00:29:19;99902.78;;;16.41;64.30
54900;BME280;40801;41.924;25.562;2023-09-19T00:31:44;99901.50;;;16.39;64.43
54900;BME280;40801;41.924;25.562;2023-09-19T00:34:10;99898.66;;;16.35;64.36
54900;BME280;40801;41.924;25.562;2023-09-19T00:36:37;99898.84;;;16.30;64.62
54900;BME280;40801;41.924;25.562;2023-09-19T00:39:04;99896.19;;;16.22;64.64
54900;BME280;40801;41.924;25.562;2023-09-19T00:41:33;99904.38;;;16.13;65.33
54900;BME280;40801;41.924;25.562;2023-09-19T00:44:01;99898.63;;;16.15;65.04
54900;BME280;40801;41.924;25.562;2023-09-19T00:46:27;99898.53;;;16.02;65.65
54900;BME280;40801;41.924;25.562;2023-09-19T00:48:53;99901.13;;;15.99;65.64
54900;BME280;40801;41.924;25.562;2023-09-19T00:51:20;99901.72;;;16.04;65.57
54900;BME280;40801;41.924;25.562;2023-09-19T00:53:47;99903.66;;;16.04;65.78
54900;BME280;40801;41.924;25.562;2023-09-19T00:56:14;99906.97;;;16.09;65.44
54900;BME280;40801;41.924;25.562;2023-09-19T00:58:43;99903.59;;;16.13;65.40
54900;BME280;40801;41.924;25.562;2023-09-19T01:01:09;99902.47;;;16.14;65.55
54900;BME280;40801;41.924;25.562;2023-09-19T01:03:37;99897.69;;;16.10;65.32
54900;BME280;40801;41.924;25.562;2023-09-19T01:06:02;99893.88;;;16.03;65.68
54900;BME280;40801;41.924;25.562;2023-09-19T01:08:28;99900.78;;;16.00;65.86
54900;BME280;40801;41.924;25.562;2023-09-19T01:11:08;99911.00;;;16.03;66.70
54900;BME280;40801;41.924;25.562;2023-09-19T01:16:32;99907.16;;;16.04;65.83
54900;BME280;40801;41.924;25.562;2023-09-19T01:30:24;99902.56;;;15.96;66.43
54900;BME280;40801;41.924;25.562;2023-09-19T01:32:53;99901.44;;;15.97;65.87
54900;BME280;40801;41.924;25.562;2023-09-19T01:35:19;99897.78;;;15.93;65.84
54900;BME280;40801;41.924;25.562;2023-09-19T01:37:44;99896.19;;;15.92;65.67
54900;BME280;40801;41.924;25.562;2023-09-19T01:40:12;99898.44;;;15.90;66.00
54900;BME280;40801;41.924;25.562;2023-09-19T01:43:09;99894.91;;;15.90;67.10
54900;BME280;40801;41.924;25.562;2023-09-19T01:45:48;99901.16;;;15.90;66.52
54900;BME280;40801;41.924;25.562;2023-09-19T01:48:40;99891.09;;;15.91;67.29
54900;BME280;40801;41.924;25.562;2023-09-19T01:51:09;99893.97;;;15.86;66.50
54900;BME280;40801;41.924;25.562;2023-09-19T01:56:22;99890.50;;;15.76;66.72
54900;BME280;40801;41.924;25.562;2023-09-19T01:58:54;99885.84;;;15.77;66.91
54900;BME280;40801;41.924;25.562;2023-09-19T02:01:24;99892.75;;;15.74;66.86
54900;BME280;40801;41.924;25.562;2023-09-19T02:03:50;99892.94;;;15.69;67.14
54900;BME280;40801;41.924;25.562;2023-09-19T02:06:17;99885.72;;;15.73;67.45
54900;BME280;40801;41.924;25.562;2023-09-19T02:08:43;99888.91;;;15.75;66.84
54900;BME280;40801;41.924;25.562;2023-09-19T02:11:13;99879.16;;;15.74;67.11
54900;BME280;40801;41.924;25.562;2023-09-19T02:13:39;99883.03;;;15.65;67.23
54900;BME280;40801;41.924;25.562;2023-09-19T02:16:06;99875.81;;;15.69;66.94
54900;BME280;40801;41.924;25.562;2023-09-19T02:18:32;99878.38;;;15.57;67.55
54900;BME280;40801;41.924;25.562;2023-09-19T02:21:00;99889.13;;;15.44;67.64
54900;BME280;40801;41.924;25.562;2023-09-19T02:23:26;99882.13;;;15.43;67.42
54900;BME280;40801;41.924;25.562;2023-09-19T02:25:55;99891.22;;;15.47;67.51
54900;BME280;40801;41.924;25.562;2023-09-19T02:28:22;99883.84;;;15.48;67.74
54900;BME280;40801;41.924;25.562;2023-09-19T02:30:48;99885.13;;;15.50;67.78
54900;BME280;40801;41.924;25.562;2023-09-19T02:33:15;99880.81;;;15.49;67.97
54900;BME280;40801;41.924;25.562;2023-09-19T02:35:42;99875.19;;;15.55;67.83
54900;BME280;40801;41.924;25.562;2023-09-19T02:38:08;99875.84;;;15.52;68.22
54900;BME280;40801;41.924;25.562;2023-09-19T02:40:33;99879.34;;;15.52;67.99
54900;BME280;40801;41.924;25.562;2023-09-19T02:43:01;99873.97;;;15.43;68.34
54900;BME280;40801;41.924;25.562;2023-09-19T02:45:27;99872.50;;;15.46;68.26
54900;BME280;40801;41.924;25.562;2023-09-19T02:47:53;99881.78;;;15.45;68.29
54900;BME280;40801;41.924;25.562;2023-09-19T02:50:18;99876.03;;;15.46;68.35
54900;BME280;40801;41.924;25.562;2023-09-19T02:52:45;99868.06;;;15.41;68.65
54900;BME280;40801;41.924;25.562;2023-09-19T02:55:13;99871.41;;;15.30;70.29
54900;BME280;40801;41.924;25.562;2023-09-19T02:57:47;99869.97;;;15.32;69.08
54900;BME280;40801;41.924;25.562;2023-09-19T03:00:13;99865.38;;;15.24;68.80
54900;BME280;40801;41.924;25.562;2023-09-19T03:02:39;99867.91;;;15.29;69.04
54900;BME280;40801;41.924;25.562;2023-09-19T03:05:07;99866.16;;;15.33;68.55
54900;BME280;40801;41.924;25.562;2023-09-19T03:07:33;99865.03;;;15.26;69.14
54900;BME280;40801;41.924;25.562;2023-09-19T03:09:59;99864.28;;;15.16;69.24
54900;BME280;40801;41.924;25.562;2023-09-19T03:12:26;99865.09;;;15.08;69.53
54900;BME280;40801;41.924;25.562;2023-09-19T03:14:51;99858.53;;;15.01;69.59
54900;BME280;40801;41.924;25.562;2023-09-19T03:17:17;99860.47;;;15.00;69.55
54900;BME280;40801;41.924;25.562;2023-09-19T03:19:44;99862.06;;;15.01;69.64
54900;BME280;40801;41.924;25.562;2023-09-19T03:22:10;99857.41;;;15.02;69.71
54900;BME280;40801;41.924;25.562;2023-09-19T03:24:36;99860.13;;;15.10;68.85
54900;BME280;40801;41.924;25.562;2023-09-19T03:27:03;99850.53;;;15.13;69.18
54900;BME280;40801;41.924;25.562;2023-09-19T03:29:28;99851.66;;;15.12;69.07
54900;BME280;40801;41.924;25.562;2023-09-19T03:31:53;99852.13;;;15.14;68.97
54900;BME280;40801;41.924;25.562;2023-09-19T03:34:20;99856.13;;;15.16;69.23
54900;BME280;40801;41.924;25.562;2023-09-19T03:36:45;99862.03;;;15.18;69.12
54900;BME280;40801;41.924;25.562;2023-09-19T03:39:11;99855.81;;;15.18;68.88
54900;BME280;40801;41.924;25.562;2023-09-19T03:41:36;99863.94;;;15.18;69.35
54900;BME280;40801;41.924;25.562;2023-09-19T03:44:02;99865.06;;;15.17;69.07
54900;BME280;40801;41.924;25.562;2023-09-19T03:46:28;99862.53;;;15.12;69.66
54900;BME280;40801;41.924;25.562;2023-09-19T03:48:54;99870.34;;;15.13;69.47
54900;BME280;40801;41.924;25.562;2023-09-19T03:51:20;99866.03;;;15.12;69.53
54900;BME280;40801;41.924;25.562;2023-09-19T03:53:45;99871.66;;;14.99;69.67
54900;BME280;40801;41.924;25.562;2023-09-19T03:56:11;99867.53;;;14.84;70.21
54900;BME280;40801;41.924;25.562;2023-09-19T03:58:36;99866.72;;;14.83;70.23
54900;BME280;40801;41.924;25.562;2023-09-19T04:01:05;99865.44;;;14.81;69.86
54900;BME280;40801;41.924;25.562;2023-09-19T04:03:35;99868.50;;;14.79;69.63
54900;BME280;40801;41.924;25.562;2023-09-19T04:06:11;99865.44;;;14.72;70.10
54900;BME280;40801;41.924;25.562;2023-09-19T04:08:37;99871.69;;;14.64;70.18
54900;BME280;40801;41.924;25.562;2023-09-19T04:11:02;99877.25;;;14.68;69.97
54900;BME280;40801;41.924;25.562;2023-09-19T04:13:28;99876.47;;;14.67;70.38
54900;BME280;40801;41.924;25.562;2023-09-19T04:15:53;99880.78;;;14.77;69.99
54900;BME280;40801;41.924;25.562;2023-09-19T04:18:19;99884.44;;;14.72;70.52
54900;BME280;40801;41.924;25.562;2023-09-19T04:20:52;99882.22;;;14.74;71.43
54900;BME280;40801;41.924;25.562;2023-09-19T04:23:18;99897.09;;;14.77;70.75
54900;BME280;40801;41.924;25.562;2023-09-19T04:25:46;99885.41;;;14.85;70.55
54900;BME280;40801;41.924;25.562;2023-09-19T04:28:11;99897.72;;;14.82;70.81
54900;BME280;40801;41.924;25.562;2023-09-19T04:30:37;99904.09;;;14.86;70.97
54900;BME280;40801;41.924;25.562;2023-09-19T04:33:05;99903.78;;;14.88;70.76
54900;BME280;40801;41.924;25.562;2023-09-19T04:35:31;99899.81;;;14.77;71.02
54900;BME280;40801;41.924;25.562;2023-09-19T04:37:57;99904.25;;;14.90;70.06
54900;BME280;40801;41.924;25.562;2023-09-19T04:40:22;99903.13;;;14.91;69.95
54900;BME280;40801;41.924;25.562;2023-09-19T04:42:54;99894.50;;;14.89;70.33
54900;BME280;40801;41.924;25.562;2023-09-19T04:45:27;99896.88;;;14.99;70.01
54900;BME280;40801;41.924;25.562;2023-09-19T04:47:52;99894.84;;;15.05;69.98
54900;BME280;40801;41.924;25.562;2023-09-19T04:50:18;99888.56;;;15.13;69.75
54900;BME280;40801;41.924;25.562;2023-09-19T04:52:44;99890.78;;;15.19;69.64
54900;BME280;40801;41.924;25.562;2023-09-19T04:57:38;99895.56;;;15.40;69.89
54900;BME280;40801;41.924;25.562;2023-09-19T05:00:05;99898.38;;;15.52;70.23
54900;BME280;40801;41.924;25.562;2023-09-19T05:02:37;99903.66;;;15.66;69.81
54900;BME280;40801;41.924;25.562;2023-09-19T05:05:03;99890.34;;;15.73;70.10
54900;BME280;40801;41.924;25.562;2023-09-19T05:07:30;99895.88;;;15.85;70.02
54900;BME280;40801;41.924;25.562;2023-09-19T05:09:55;99897.78;;;15.93;70.33
54900;BME280;40801;41.924;25.562;2023-09-19T05:12:20;99900.00;;;16.00;70.32
54900;BME280;40801;41.924;25.562;2023-09-19T05:14:46;99895.88;;;16.23;69.59
54900;BME280;40801;41.924;25.562;2023-09-19T05:17:11;99895.88;;;16.23;70.14
54900;BME280;40801;41.924;25.562;2023-09-19T05:19:38;99894.69;;;16.33;69.64
54900;BME280;40801;41.924;25.562;2023-09-19T05:22:03;99893.16;;;16.44;69.52
54900;BME280;40801;41.924;25.562;2023-09-19T05:24:29;99890.31;;;16.61;68.87
54900;BME280;40801;41.924;25.562;2023-09-19T05:26:56;99893.09;;;16.94;68.52
54900;BME280;40801;41.924;25.562;2023-09-19T05:29:22;99906.94;;;17.22;68.47
54900;BME280;40801;41.924;25.562;2023-09-19T05:31:48;99898.38;;;17.57;67.76
54900;BME280;40801;41.924;25.562;2023-09-19T05:34:14;99898.69;;;17.88;66.59
54900;BME280;40801;41.924;25.562;2023-09-19T05:36:40;99902.88;;;17.86;66.80
54900;BME280;40801;41.924;25.562;2023-09-19T05:39:05;99898.91;;;18.32;65.72
54900;BME280;40801;41.924;25.562;2023-09-19T05:41:34;99894.19;;;18.45;63.95
54900;BME280;40801;41.924;25.562;2023-09-19T05:44:04;99894.28;;;18.73;63.88
54900;BME280;40801;41.924;25.562;2023-09-19T05:46:32;99893.22;;;18.77;63.21
54900;BME280;40801;41.924;25.562;2023-09-19T05:48:57;99887.66;;;19.30;61.65
54900;BME280;40801;41.924;25.562;2023-09-19T05:51:23;99885.59;;;19.55;61.24
54900;BME280;40801;41.924;25.562;2023-09-19T05:53:48;99892.06;;;19.78;60.83
54900;BME280;40801;41.924;25.562;2023-09-19T05:56:15;99888.28;;;20.18;59.88
54900;BME280;40801;41.924;25.562;2023-09-19T05:58:40;99880.97;;;20.57;58.55
54900;BME280;40801;41.924;25.562;2023-09-19T06:01:09;99889.38;;;20.83;58.21
54900;BME280;40801;41.924;25.562;2023-09-19T06:03:35;99880.81;;;21.08;57.29
54900;BME280;40801;41.924;25.562;2023-09-19T06:06:03;99885.34;;;21.19;55.64
54900;BME280;40801;41.924;25.562;2023-09-19T06:08:31;99885.22;;;21.54;55.71
54900;BME280;40801;41.924;25.562;2023-09-19T06:10:57;99884.06;;;21.78;55.06
54900;BME280;40801;41.924;25.562;2023-09-19T06:13:22;99880.94;;;21.80;54.70
54900;BME280;40801;41.924;25.562;2023-09-19T06:15:48;99874.53;;;22.48;53.39
54900;BME280;40801;41.924;25.562;2023-09-19T06:18:14;99876.44;;;22.74;52.44
54900;BME280;40801;41.924;25.562;2023-09-19T06:20:46;99875.47;;;22.89;51.90
54900;BME280;40801;41.924;25.562;2023-09-19T06:23:11;99875.94;;;22.95;51.29
54900;BME280;40801;41.924;25.562;2023-09-19T06:25:37;99876.47;;;23.11;51.08
54900;BME280;40801;41.924;25.562;2023-09-19T06:28:02;99876.25;;;23.23;50.70
54900;BME280;40801;41.924;25.562;2023-09-19T06:30:30;99876.44;;;23.44;50.19
54900;BME280;40801;41.924;25.562;2023-09-19T06:32:56;99878.53;;;24.02;48.82
54900;BME280;40801;41.924;25.562;2023-09-19T06:35:22;99882.16;;;24.17;48.58
54900;BME280;40801;41.924;25.562;2023-09-19T06:37:48;99881.53;;;24.38;48.62
54900;BME280;40801;41.924;25.562;2023-09-19T06:40:14;99883.97;;;24.50;48.09
54900;BME280;40801;41.924;25.562;2023-09-19T06:42:45;99878.72;;;25.14;46.38
54900;BME280;40801;41.924;25.562;2023-09-19T06:45:11;99873.63;;;25.23;46.29
54900;BME280;40801;41.924;25.562;2023-09-19T06:47:39;99874.84;;;25.65;45.46
54900;BME280;40801;41.924;25.562;2023-09-19T06:50:05;99870.50;;;25.46;45.32
54900;BME280;40801;41.924;25.562;2023-09-19T06:52:32;99871.31;;;26.04;44.58
54900;BME280;40801;41.924;25.562;2023-09-19T06:54:58;99869.25;;;26.47;43.89
54900;BME280;40801;41.924;25.562;2023-09-19T06:57:24;99865.66;;;26.61;43.49
54900;BME280;40801;41.924;25.562;2023-09-19T06:59:49;99872.22;;;26.99;42.21
54900;BME280;40801;41.924;25.562;2023-09-19T07:02:15;99868.59;;;27.12;41.87
54900;BME280;40801;41.924;25.562;2023-09-19T07:04:40;99867.38;;;27.76;40.86
54900;BME280;40801;41.924;25.562;2023-09-19T07:07:06;99860.50;;;27.39;39.85
54900;BME280;40801;41.924;25.562;2023-09-19T07:09:34;99865.97;;;27.46;39.41
54900;BME280;40801;41.924;25.562;2023-09-19T07:11:59;99861.53;;;28.08;39.10
54900;BME280;40801;41.924;25.562;2023-09-19T07:14:26;99861.28;;;28.33;38.58
54900;BME280;40801;41.924;25.562;2023-09-19T07:16:51;99854.88;;;28.74;37.95
54900;BME280;40801;41.924;25.562;2023-09-19T07:19:17;99855.34;;;28.99;37.00
54900;BME280;40801;41.924;25.562;2023-09-19T07:21:42;99855.47;;;28.88;36.94
54900;BME280;40801;41.924;25.562;2023-09-19T07:24:08;99852.69;;;28.92;36.67
54900;BME280;40801;41.924;25.562;2023-09-19T07:26:35;99840.94;;;29.08;36.92
54900;BME280;40801;41.924;25.562;2023-09-19T07:29:00;99842.69;;;29.52;36.72
54900;BME280;40801;41.924;25.562;2023-09-19T07:31:29;99834.81;;;29.47;36.46
54900;BME280;40801;41.924;25.562;2023-09-19T07:33:54;99841.34;;;30.07;35.49
54900;BME280;40801;41.924;25.562;2023-09-19T07:36:20;99829.91;;;29.78;35.42
54900;BME280;40801;41.924;25.562;2023-09-19T07:38:45;99824.88;;;30.36;35.03
54900;BME280;40801;41.924;25.562;2023-09-19T07:41:11;99831.09;;;30.63;34.33
54900;BME280;40801;41.924;25.562;2023-09-19T07:43:36;99829.97;;;30.61;34.64
54900;BME280;40801;41.924;25.562;2023-09-19T07:46:07;99826.22;;;31.23;33.84
54900;BME280;40801;41.924;25.562;2023-09-19T07:48:34;99829.44;;;31.70;33.02
54900;BME280;40801;41.924;25.562;2023-09-19T07:51:05;99815.44;;;32.03;31.91
54900;BME280;40801;41.924;25.562;2023-09-19T07:53:32;99818.41;;;32.12;31.83
54900;BME280;40801;41.924;25.562;2023-09-19T07:56:07;99810.84;;;32.67;30.54
54900;BME280;40801;41.924;25.562;2023-09-19T07:58:33;99814.28;;;32.46;31.61
54900;BME280;40801;41.924;25.562;2023-09-19T08:01:03;99810.81;;;32.54;30.23
54900;BME280;40801;41.924;25.562;2023-09-19T08:03:29;99807.44;;;33.01;30.06
54900;BME280;40801;41.924;25.562;2023-09-19T08:05:56;99810.66;;;33.25;29.90
54900;BME280;40801;41.924;25.562;2023-09-19T08:08:22;99809.09;;;33.24;29.92
54900;BME280;40801;41.924;25.562;2023-09-19T08:10:58;99799.69;;;33.56;28.51
54900;BME280;40801;41.924;25.562;2023-09-19T08:13:24;99800.47;;;33.56;28.57
54900;BME280;40801;41.924;25.562;2023-09-19T08:15:49;99803.28;;;33.56;28.27
54900;BME280;40801;41.924;25.562;2023-09-19T08:18:16;99799.00;;;33.52;29.09
54900;BME280;40801;41.924;25.562;2023-09-19T08:20:42;99801.97;;;33.36;28.64
54900;BME280;40801;41.924;25.562;2023-09-19T08:23:07;99797.44;;;32.62;29.69
54900;BME280;40801;41.924;25.562;2023-09-19T08:25:33;99794.81;;;33.09;29.43
54900;BME280;40801;41.924;25.562;2023-09-19T08:27:59;99796.34;;;33.23;29.20
54900;BME280;40801;41.924;25.562;2023-09-19T08:33:12;99788.41;;;34.16;27.27
54900;BME280;40801;41.924;25.562;2023-09-19T08:35:40;99783.13;;;34.18;27.46
54900;BME280;40801;41.924;25.562;2023-09-19T08:38:06;99778.59;;;34.64;26.25
54900;BME280;40801;41.924;25.562;2023-09-19T08:40:32;99770.66;;;34.94;25.98
54900;BME280;40801;41.924;25.562;2023-09-19T08:43:01;99766.19;;;34.74;25.47
54900;BME280;40801;41.924;25.562;2023-09-19T08:45:27;99762.44;;;34.99;25.56
54900;BME280;40801;41.924;25.562;2023-09-19T08:50:29;99755.38;;;35.44;24.19
54900;BME280;40801;41.924;25.562;2023-09-19T08:52:56;99766.72;;;35.31;24.63
54900;BME280;40801;41.924;25.562;2023-09-19T08:55:29;99755.44;;;35.90;23.91
54900;BME280;40801;41.924;25.562;2023-09-19T08:58:03;99752.59;;;36.17;23.90
54900;BME280;40801;41.924;25.562;2023-09-19T09:00:31;99750.75;;;35.87;23.31
54900;BME280;40801;41.924;25.562;2023-09-19T09:02:59;99747.94;;;35.96;23.75
54900;BME280;40801;41.924;25.562;2023-09-19T09:05:27;99744.81;;;35.94;23.94
54900;BME280;40801;41.924;25.562;2023-09-19T09:07:53;99749.00;;;35.62;24.67
54900;BME280;40801;41.924;25.562;2023-09-19T09:10:22;99738.91;;;35.92;24.21
54900;BME280;40801;41.924;25.562;2023-09-19T09:12:52;99746.06;;;35.84;23.91
54900;BME280;40801;41.924;25.562;2023-09-19T09:15:22;99738.06;;;36.19;23.31
54900;BME280;40801;41.924;25.562;2023-09-19T09:17:49;99733.38;;;36.25;23.29
54900;BME280;40801;41.924;25.562;2023-09-19T09:20:16;99726.06;;;36.18;23.43
54900;BME280;40801;41.924;25.562;2023-09-19T09:22:55;99732.47;;;36.10;22.42
54900;BME280;40801;41.924;25.562;2023-09-19T09:25:47;99731.84;;;35.78;22.72
54900;BME280;40801;41.924;25.562;2023-09-19T09:28:19;99721.38;;;36.06;23.56
54900;BME280;40801;41.924;25.562;2023-09-19T09:30:45;99720.28;;;36.13;23.35
54900;BME280;40801;41.924;25.562;2023-09-19T09:33:12;99713.25;;;36.78;22.73
54900;BME280;40801;41.924;25.562;2023-09-19T09:36:07;99712.81;;;37.03;22.25
54900;BME280;40801;41.924;25.562;2023-09-19T09:38:45;99702.97;;;36.99;21.91
54900;BME280;40801;41.924;25.562;2023-09-19T09:41:11;99711.66;;;37.10;22.31
54900;BME280;40801;41.924;25.562;2023-09-19T09:43:42;99703.25;;;37.34;21.89
54900;BME280;40801;41.924;25.562;2023-09-19T09:46:17;99706.47;;;37.41;21.78
54900;BME280;40801;41.924;25.562;2023-09-19T09:48:47;99706.84;;;37.88;21.60
54900;BME280;40801;41.924;25.562;2023-09-19T09:51:32;99701.06;;;37.67;21.60
54900;BME280;40801;41.924;25.562;2023-09-19T09:54:14;99694.72;;;37.96;20.92
54900;BME280;40801;41.924;25.562;2023-09-19T09:56:56;99699.59;;;37.96;20.67
54900;BME280;40801;41.924;25.562;2023-09-19T10:02:15;99686.66;;;38.04;21.11
54900;BME280;40801;41.924;25.562;2023-09-19T10:04:48;99681.41;;;37.82;21.00
54900;BME280;40801;41.924;25.562;2023-09-19T10:07:33;99678.50;;;38.06;20.25
54900;BME280;40801;41.924;25.562;2023-09-19T10:10:02;99668.19;;;38.47;20.38
54900;BME280;40801;41.924;25.562;2023-09-19T10:12:58;99670.53;;;37.75;20.72
54900;BME280;40801;41.924;25.562;2023-09-19T10:15:31;99665.38;;;38.47;19.75
54900;BME280;40801;41.924;25.562;2023-09-19T10:18:01;99667.34;;;38.26;19.59
54900;BME280;40801;41.924;25.562;2023-09-19T10:20:30;99659.84;;;38.38;20.01
54900;BME280;40801;41.924;25.562;2023-09-19T10:22:56;99667.19;;;39.20;19.49
54900;BME280;40801;41.924;25.562;2023-09-19T10:25:28;99649.19;;;39.90;18.26
54900;BME280;40801;41.924;25.562;2023-09-19T10:27:57;99653.81;;;40.19;18.39
54900;BME280;40801;41.924;25.562;2023-09-19T10:30:29;99650.41;;;39.83;18.64
54900;BME280;40801;41.924;25.562;2023-09-19T10:33:03;99648.19;;;39.21;19.22
54900;BME280;40801;41.924;25.562;2023-09-19T10:35:32;99638.28;;;39.51;19.32
54900;BME280;40801;41.924;25.562;2023-09-19T10:38:00;99641.94;;;39.57;19.25
54900;BME280;40801;41.924;25.562;2023-09-19T10:40:29;99637.88;;;39.38;18.82
54900;BME280;40801;41.924;25.562;2023-09-19T10:43:04;99636.19;;;39.98;18.58
54900;BME280;40801;41.924;25.562;2023-09-19T10:45:32;99628.94;;;39.19;19.08
54900;BME280;40801;41.924;25.562;2023-09-19T10:47:59;99622.47;;;40.17;18.24
54900;BME280;40801;41.924;25.562;2023-09-19T10:50:27;99619.75;;;40.34;17.76
54900;BME280;40801;41.924;25.562;2023-09-19T10:53:00;99613.00;;;40.20;18.11
54900;BME280;40801;41.924;25.562;2023-09-19T10:55:30;99609.94;;;40.23;18.42
54900;BME280;40801;41.924;25.562;2023-09-19T10:57:56;99605.78;;;40.56;17.96
54900;BME280;40801;41.924;25.562;2023-09-19T11:00:58;99605.13;;;39.98;18.26
54900;BME280;40801;41.924;25.562;2023-09-19T11:03:41;99602.16;;;40.50;17.58
54900;BME280;40801;41.924;25.562;2023-09-19T11:06:14;99601.03;;;40.79;17.33
54900;BME280;40801;41.924;25.562;2023-09-19T11:09:03;99591.69;;;40.62;17.15
54900;BME280;40801;41.924;25.562;2023-09-19T11:11:51;99593.66;;;41.04;17.26
54900;BME280;40801;41.924;25.562;2023-09-19T11:36:06;99556.63;;;40.05;17.15
54900;BME280;40801;41.924;25.562;2023-09-19T11:46:27;99542.00;;;41.09;16.52
54900;BME280;40801;41.924;25.562;2023-09-19T11:48:53;99529.47;;;41.43;16.26
54900;BME280;40801;41.924;25.562;2023-09-19T11:51:23;99527.63;;;42.24;15.61
54900;BME280;40801;41.924;25.562;2023-09-19T11:53:56;99525.84;;;41.88;15.34
54900;BME280;40801;41.924;25.562;2023-09-19T11:56:25;99521.97;;;41.24;15.94
54900;BME280;40801;41.924;25.562;2023-09-19T11:58:54;99520.69;;;41.97;15.29
54900;BME280;40801;41.924;25.562;2023-09-19T12:03:52;99511.38;;;41.19;15.09
54900;BME280;40801;41.924;25.562;2023-09-19T12:06:20;99509.34;;;41.13;15.59
54900;BME280;40801;41.924;25.562;2023-09-19T12:08:46;99501.72;;;40.60;15.44
54900;BME280;40801;41.924;25.562;2023-09-19T12:11:14;99502.66;;;41.89;14.96
54900;BME280;40801;41.924;25.562;2023-09-19T12:13:44;99502.84;;;42.30;14.37
54900;BME280;40801;41.924;25.562;2023-09-19T12:16:14;99497.00;;;42.06;14.96
54900;BME280;40801;41.924;25.562;2023-09-19T12:18:40;99492.66;;;41.49;15.42
54900;BME280;40801;41.924;25.562;2023-09-19T12:21:21;99485.19;;;41.52;15.39
54900;BME280;40801;41.924;25.562;2023-09-19T12:26:41;99484.66;;;41.81;14.74
54900;BME280;40801;41.924;25.562;2023-09-19T12:29:12;99477.41;;;42.02;14.51
54900;BME280;40801;41.924;25.562;2023-09-19T12:31:47;99481.66;;;42.43;14.09
54900;BME280;40801;41.924;25.562;2023-09-19T12:34:26;99473.84;;;43.07;14.19
54900;BME280;40801;41.924;25.562;2023-09-19T12:39:41;99464.81;;;41.87;14.91
54900;BME280;40801;41.924;25.562;2023-09-19T12:42:11;99467.41;;;41.73;15.41
54900;BME280;40801;41.924;25.562;2023-09-19T12:44:41;99459.94;;;41.54;14.87
54900;BME280;40801;41.924;25.562;2023-09-19T12:47:15;99455.78;;;40.93;15.46
54900;BME280;40801;41.924;25.562;2023-09-19T12:50:14;99455.97;;;39.65;17.00
54900;BME280;40801;41.924;25.562;2023-09-19T12:52:52;99460.72;;;38.14;18.10
54900;BME280;40801;41.924;25.562;2023-09-19T12:55:30;99458.44;;;36.89;19.74
54900;BME280;40801;41.924;25.562;2023-09-19T12:57:59;99452.34;;;36.28;19.80
54900;BME280;40801;41.924;25.562;2023-09-19T13:00:35;99447.81;;;36.31;20.52
54900;BME280;40801;41.924;25.562;2023-09-19T13:05:55;99453.78;;;37.75;18.34
54900;BME280;40801;41.924;25.562;2023-09-19T13:08:39;99454.78;;;37.42;18.57
54900;BME280;40801;41.924;25.562;2023-09-19T13:11:16;99443.63;;;37.04;18.65
54900;BME280;40801;41.924;25.562;2023-09-19T13:14:19;99446.69;;;37.65;18.21
54900;BME280;40801;41.924;25.562;2023-09-19T13:17:00;99440.72;;;38.12;17.82
54900;BME280;40801;41.924;25.562;2023-09-19T13:19:40;99439.19;;;38.52;18.10
54900;BME280;40801;41.924;25.562;2023-09-19T13:25:08;99441.59;;;39.69;15.97
54900;BME280;40801;41.924;25.562;2023-09-19T13:27:39;99433.69;;;39.41;17.22
54900;BME280;40801;41.924;25.562;2023-09-19T13:30:05;99430.91;;;38.89;16.78
54900;BME280;40801;41.924;25.562;2023-09-19T13:32:32;99430.69;;;39.50;16.96
54900;BME280;40801;41.924;25.562;2023-09-19T13:34:58;99431.94;;;39.18;16.66
54900;BME280;40801;41.924;25.562;2023-09-19T13:37:23;99433.19;;;39.43;17.07
54900;BME280;40801;41.924;25.562;2023-09-19T13:39:49;99432.53;;;39.59;16.58
54900;BME280;40801;41.924;25.562;2023-09-19T13:42:14;99432.56;;;40.02;16.57
54900;BME280;40801;41.924;25.562;2023-09-19T13:44:41;99430.44;;;40.39;16.19
54900;BME280;40801;41.924;25.562;2023-09-19T13:47:07;99429.22;;;40.51;16.30
54900;BME280;40801;41.924;25.562;2023-09-19T13:49:38;99428.84;;;40.27;16.61
54900;BME280;40801;41.924;25.562;2023-09-19T13:52:04;99425.38;;;40.66;16.42
54900;BME280;40801;41.924;25.562;2023-09-19T13:54:30;99423.41;;;41.16;15.51
54900;BME280;40801;41.924;25.562;2023-09-19T13:56:56;99427.25;;;41.19;15.03
54900;BME280;40801;41.924;25.562;2023-09-19T13:59:21;99422.63;;;40.94;15.45
54900;BME280;40801;41.924;25.562;2023-09-19T14:01:49;99419.06;;;40.28;16.25
54900;BME280;40801;41.924;25.562;2023-09-19T14:04:14;99421.38;;;39.81;16.71
54900;BME280;40801;41.924;25.562;2023-09-19T14:06:42;99420.13;;;38.88;16.62
54900;BME280;40801;41.924;25.562;2023-09-19T14:09:07;99430.56;;;38.82;17.08
54900;BME280;40801;41.924;25.562;2023-09-19T14:11:33;99426.66;;;38.53;17.03